sensor_id;sensor_type;location;lat;lon;timestamp;P1;durP1;ratioP1;P2;durP2;ratioP2
73239;SDS011;61452;40.054;4.110;2024-01-15T00:04:47;3.50;;;1.35;;
73239;SDS011;61452;40.054;4.110;2024-01-15T00:09:49;4.28;;;1.58;;
73239;SDS011;61452;40.054;4.110;2024-01-15T00:14:53;2.30;;;1.08;;
73239;SDS011;61452;40.054;4.110;2024-01-15T00:19:55;4.80;;;1.48;;
73239;SDS011;61452;40.054;4.110;2024-01-15T00:24:57;4.55;;;1.45;;
73239;SDS011;61452;40.054;4.110;2024-01-15T00:29:59;3.05;;;1.25;;
73239;SDS011;61452;40.054;4.110;2024-01-15T00:35:02;7.05;;;2.38;;
73239;SDS011;61452;40.054;4.110;2024-01-15T00:40:05;7.97;;;2.08;;
73239;SDS011;61452;40.054;4.110;2024-01-15T00:50:11;7.03;;;1.42;;
73239;SDS011;61452;40.054;4.110;2024-01-15T00:55:13;5.72;;;1.48;;
73239;SDS011;61452;40.054;4.110;2024-01-15T01:00:16;5.68;;;1.70;;
73239;SDS011;61452;40.054;4.110;2024-01-15T01:05:18;5.57;;;1.58;;
73239;SDS011;61452;40.054;4.110;2024-01-15T01:10:20;6.05;;;1.77;;
73239;SDS011;61452;40.054;4.110;2024-01-15T01:15:22;7.18;;;1.67;;
73239;SDS011;61452;40.054;4.110;2024-01-15T01:20:26;3.67;;;2.13;;
73239;SDS011;61452;40.054;4.110;2024-01-15T01:25:28;7.10;;;2.95;;
73239;SDS011;61452;40.054;4.110;2024-01-15T01:30:30;3.80;;;1.20;;
73239;SDS011;61452;40.054;4.110;2024-01-15T01:35:32;7.95;;;1.58;;
73239;SDS011;61452;40.054;4.110;2024-01-15T01:40:34;6.35;;;1.60;;
73239;SDS011;61452;40.054;4.110;2024-01-15T01:45:37;4.82;;;1.65;;
73239;SDS011;61452;40.054;4.110;2024-01-15T01:50:40;5.00;;;1.88;;
73239;SDS011;61452;40.054;4.110;2024-01-15T01:55:42;6.38;;;1.88;;
73239;SDS011;61452;40.054;4.110;2024-01-15T02:00:45;7.07;;;1.60;;
73239;SDS011;61452;40.054;4.110;2024-01-15T02:05:49;8.73;;;1.70;;
73239;SDS011;61452;40.054;4.110;2024-01-15T02:10:51;6.63;;;2.20;;
73239;SDS011;61452;40.054;4.110;2024-01-15T02:15:53;6.85;;;2.22;;
73239;SDS011;61452;40.054;4.110;2024-01-15T02:20:55;5.63;;;1.60;;
73239;SDS011;61452;40.054;4.110;2024-01-15T02:25:57;4.50;;;1.85;;
73239;SDS011;61452;40.054;4.110;2024-01-15T02:31:00;2.70;;;1.45;;
73239;SDS011;61452;40.054;4.110;2024-01-15T02:36:02;7.15;;;1.80;;
73239;SDS011;61452;40.054;4.110;2024-01-15T02:41:05;5.93;;;1.58;;
73239;SDS011;61452;40.054;4.110;2024-01-15T02:46:07;7.28;;;1.70;;
73239;SDS011;61452;40.054;4.110;2024-01-15T02:51:09;6.93;;;1.80;;
73239;SDS011;61452;40.054;4.110;2024-01-15T02:56:11;7.68;;;2.45;;
73239;SDS011;61452;40.054;4.110;2024-01-15T03:01:13;5.25;;;1.70;;
73239;SDS011;61452;40.054;4.110;2024-01-15T03:06:15;5.50;;;1.40;;
73239;SDS011;61452;40.054;4.110;2024-01-15T03:11:17;4.57;;;1.70;;
73239;SDS011;61452;40.054;4.110;2024-01-15T03:16:19;6.70;;;1.73;;
73239;SDS011;61452;40.054;4.110;2024-01-15T03:21:22;5.50;;;1.77;;
73239;SDS011;61452;40.054;4.110;2024-01-15T03:26:24;8.18;;;2.22;;
73239;SDS011;61452;40.054;4.110;2024-01-15T03:31:26;10.18;;;2.28;;
73239;SDS011;61452;40.054;4.110;2024-01-15T03:36:28;5.07;;;1.60;;
73239;SDS011;61452;40.054;4.110;2024-01-15T03:41:30;4.75;;;1.48;;
73239;SDS011;61452;40.054;4.110;2024-01-15T03:46:32;6.47;;;1.83;;
73239;SDS011;61452;40.054;4.110;2024-01-15T03:51:34;5.93;;;1.60;;
73239;SDS011;61452;40.054;4.110;2024-01-15T03:56:37;5.13;;;1.70;;
73239;SDS011;61452;40.054;4.110;2024-01-15T04:01:39;6.70;;;2.00;;
73239;SDS011;61452;40.054;4.110;2024-01-15T04:06:41;5.53;;;2.15;;
73239;SDS011;61452;40.054;4.110;2024-01-15T04:11:43;6.20;;;1.55;;
73239;SDS011;61452;40.054;4.110;2024-01-15T04:16:45;8.18;;;2.03;;
73239;SDS011;61452;40.054;4.110;2024-01-15T04:21:47;6.80;;;2.10;;
73239;SDS011;61452;40.054;4.110;2024-01-15T04:26:50;4.78;;;1.65;;
73239;SDS011;61452;40.054;4.110;2024-01-15T04:31:53;5.78;;;1.48;;
73239;SDS011;61452;40.054;4.110;2024-01-15T04:36:55;4.90;;;1.50;;
73239;SDS011;61452;40.054;4.110;2024-01-15T04:41:57;6.93;;;1.52;;
73239;SDS011;61452;40.054;4.110;2024-01-15T04:46:59;4.35;;;1.98;;
73239;SDS011;61452;40.054;4.110;2024-01-15T04:52:01;3.88;;;2.10;;
73239;SDS011;61452;40.054;4.110;2024-01-15T04:57:03;3.10;;;1.30;;
73239;SDS011;61452;40.054;4.110;2024-01-15T05:02:05;6.00;;;1.80;;
73239;SDS011;61452;40.054;4.110;2024-01-15T05:07:07;5.78;;;1.60;;
73239;SDS011;61452;40.054;4.110;2024-01-15T05:12:10;5.53;;;1.63;;
73239;SDS011;61452;40.054;4.110;2024-01-15T05:17:13;5.32;;;1.80;;
73239;SDS011;61452;40.054;4.110;2024-01-15T05:22:15;5.28;;;1.90;;
73239;SDS011;61452;40.054;4.110;2024-01-15T05:27:17;3.10;;;1.88;;
73239;SDS011;61452;40.054;4.110;2024-01-15T05:32:19;4.72;;;1.50;;
73239;SDS011;61452;40.054;4.110;2024-01-15T05:37:21;4.05;;;1.40;;
73239;SDS011;61452;40.054;4.110;2024-01-15T05:42:23;3.90;;;1.50;;
73239;SDS011;61452;40.054;4.110;2024-01-15T05:47:26;3.90;;;1.65;;
73239;SDS011;61452;40.054;4.110;2024-01-15T05:52:28;3.83;;;1.58;;
73239;SDS011;61452;40.054;4.110;2024-01-15T05:57:30;4.82;;;1.77;;
73239;SDS011;61452;40.054;4.110;2024-01-15T06:02:32;6.82;;;1.77;;
73239;SDS011;61452;40.054;4.110;2024-01-15T06:07:34;2.97;;;1.73;;
73239;SDS011;61452;40.054;4.110;2024-01-15T06:12:38;2.35;;;1.15;;
73239;SDS011;61452;40.054;4.110;2024-01-15T06:17:40;3.22;;;1.30;;
73239;SDS011;61452;40.054;4.110;2024-01-15T06:22:42;3.63;;;1.55;;
73239;SDS011;61452;40.054;4.110;2024-01-15T06:27:44;4.55;;;1.20;;
73239;SDS011;61452;40.054;4.110;2024-01-15T06:32:46;2.38;;;1.33;;
73239;SDS011;61452;40.054;4.110;2024-01-15T06:37:49;5.90;;;1.60;;
73239;SDS011;61452;40.054;4.110;2024-01-15T06:42:51;5.65;;;1.10;;
73239;SDS011;61452;40.054;4.110;2024-01-15T06:47:53;3.53;;;1.30;;
73239;SDS011;61452;40.054;4.110;2024-01-15T06:52:55;4.03;;;1.10;;
73239;SDS011;61452;40.054;4.110;2024-01-15T06:57:57;4.40;;;2.05;;
73239;SDS011;61452;40.054;4.110;2024-01-15T07:02:59;3.88;;;1.17;;
73239;SDS011;61452;40.054;4.110;2024-01-15T07:08:01;2.58;;;1.58;;
73239;SDS011;61452;40.054;4.110;2024-01-15T07:13:03;5.05;;;1.77;;
73239;SDS011;61452;40.054;4.110;2024-01-15T07:18:07;2.45;;;1.30;;
73239;SDS011;61452;40.054;4.110;2024-01-15T07:23:09;4.13;;;1.88;;
73239;SDS011;61452;40.054;4.110;2024-01-15T07:28:11;3.50;;;1.33;;
73239;SDS011;61452;40.054;4.110;2024-01-15T07:33:13;2.67;;;1.17;;
73239;SDS011;61452;40.054;4.110;2024-01-15T07:38:15;3.17;;;1.27;;
73239;SDS011;61452;40.054;4.110;2024-01-15T07:43:18;2.85;;;1.10;;
73239;SDS011;61452;40.054;4.110;2024-01-15T07:48:20;3.75;;;1.17;;
73239;SDS011;61452;40.054;4.110;2024-01-15T07:53:22;4.60;;;1.45;;
73239;SDS011;61452;40.054;4.110;2024-01-15T07:58:24;1.85;;;1.17;;
73239;SDS011;61452;40.054;4.110;2024-01-15T08:03:26;2.08;;;1.05;;
73239;SDS011;61452;40.054;4.110;2024-01-15T08:08:28;3.33;;;1.10;;
73239;SDS011;61452;40.054;4.110;2024-01-15T08:13:31;2.75;;;0.93;;
73239;SDS011;61452;40.054;4.110;2024-01-15T08:18:33;4.25;;;1.23;;
73239;SDS011;61452;40.054;4.110;2024-01-15T08:23:35;2.58;;;0.90;;
73239;SDS011;61452;40.054;4.110;2024-01-15T08:28:37;1.85;;;1.10;;
73239;SDS011;61452;40.054;4.110;2024-01-15T08:33:40;1.75;;;1.10;;
73239;SDS011;61452;40.054;4.110;2024-01-15T08:38:42;2.22;;;1.02;;
73239;SDS011;61452;40.054;4.110;2024-01-15T08:43:44;2.55;;;1.27;;
73239;SDS011;61452;40.054;4.110;2024-01-15T08:48:47;2.72;;;0.93;;
73239;SDS011;61452;40.054;4.110;2024-01-15T08:53:49;2.13;;;1.05;;
73239;SDS011;61452;40.054;4.110;2024-01-15T08:58:51;2.47;;;1.23;;
73239;SDS011;61452;40.054;4.110;2024-01-15T09:03:53;3.38;;;1.00;;
73239;SDS011;61452;40.054;4.110;2024-01-15T09:08:55;2.22;;;0.90;;
73239;SDS011;61452;40.054;4.110;2024-01-15T09:13:57;2.33;;;1.00;;
73239;SDS011;61452;40.054;4.110;2024-01-15T09:19:00;2.88;;;0.90;;
73239;SDS011;61452;40.054;4.110;2024-01-15T09:24:02;2.38;;;1.00;;
73239;SDS011;61452;40.054;4.110;2024-01-15T09:29:04;3.60;;;1.30;;
73239;SDS011;61452;40.054;4.110;2024-01-15T09:34:06;2.13;;;1.00;;
73239;SDS011;61452;40.054;4.110;2024-01-15T09:39:09;1.80;;;0.98;;
73239;SDS011;61452;40.054;4.110;2024-01-15T09:44:12;2.17;;;0.98;;
73239;SDS011;61452;40.054;4.110;2024-01-15T09:49:16;1.77;;;1.00;;
73239;SDS011;61452;40.054;4.110;2024-01-15T09:54:18;2.17;;;0.98;;
73239;SDS011;61452;40.054;4.110;2024-01-15T09:59:21;2.20;;;0.80;;
73239;SDS011;61452;40.054;4.110;2024-01-15T10:04:26;1.98;;;0.90;;
73239;SDS011;61452;40.054;4.110;2024-01-15T10:09:28;1.70;;;1.02;;
73239;SDS011;61452;40.054;4.110;2024-01-15T10:14:30;2.67;;;1.00;;
73239;SDS011;61452;40.054;4.110;2024-01-15T10:19:34;2.20;;;0.88;;
73239;SDS011;61452;40.054;4.110;2024-01-15T10:24:36;3.22;;;1.10;;
73239;SDS011;61452;40.054;4.110;2024-01-15T10:29:40;2.17;;;0.95;;
73239;SDS011;61452;40.054;4.110;2024-01-15T10:39:46;1.58;;;0.82;;
73239;SDS011;61452;40.054;4.110;2024-01-15T10:44:48;3.15;;;0.82;;
73239;SDS011;61452;40.054;4.110;2024-01-15T10:49:50;1.48;;;0.80;;
73239;SDS011;61452;40.054;4.110;2024-01-15T10:54:54;2.83;;;1.20;;
73239;SDS011;61452;40.054;4.110;2024-01-15T10:59:57;1.98;;;0.90;;
73239;SDS011;61452;40.054;4.110;2024-01-15T11:05:00;2.05;;;0.75;;
73239;SDS011;61452;40.054;4.110;2024-01-15T11:10:05;2.03;;;1.00;;
73239;SDS011;61452;40.054;4.110;2024-01-15T11:15:09;2.05;;;0.90;;
73239;SDS011;61452;40.054;4.110;2024-01-15T11:20:11;2.38;;;1.45;;
73239;SDS011;61452;40.054;4.110;2024-01-15T11:25:14;2.45;;;1.05;;
73239;SDS011;61452;40.054;4.110;2024-01-15T11:30:17;1.85;;;0.95;;
73239;SDS011;61452;40.054;4.110;2024-01-15T11:35:23;2.20;;;1.00;;
73239;SDS011;61452;40.054;4.110;2024-01-15T11:40:52;2.58;;;1.08;;
73239;SDS011;61452;40.054;4.110;2024-01-15T11:45:54;1.83;;;1.08;;
73239;SDS011;61452;40.054;4.110;2024-01-15T11:50:56;1.80;;;0.77;;
73239;SDS011;61452;40.054;4.110;2024-01-15T11:56:01;2.25;;;1.23;;
73239;SDS011;61452;40.054;4.110;2024-01-15T12:01:04;1.50;;;0.80;;
73239;SDS011;61452;40.054;4.110;2024-01-15T12:06:07;2.15;;;0.80;;
73239;SDS011;61452;40.054;4.110;2024-01-15T12:11:13;1.85;;;0.77;;
73239;SDS011;61452;40.054;4.110;2024-01-15T12:16:17;1.98;;;1.20;;
73239;SDS011;61452;40.054;4.110;2024-01-15T12:21:19;1.80;;;0.75;;
73239;SDS011;61452;40.054;4.110;2024-01-15T12:26:21;2.40;;;0.90;;
73239;SDS011;61452;40.054;4.110;2024-01-15T12:31:23;2.33;;;0.70;;
73239;SDS011;61452;40.054;4.110;2024-01-15T12:36:26;1.55;;;0.90;;
73239;SDS011;61452;40.054;4.110;2024-01-15T12:41:28;1.88;;;0.95;;
73239;SDS011;61452;40.054;4.110;2024-01-15T12:46:31;2.08;;;1.23;;
73239;SDS011;61452;40.054;4.110;2024-01-15T12:51:34;1.23;;;0.88;;
73239;SDS011;61452;40.054;4.110;2024-01-15T12:56:36;2.03;;;0.90;;
73239;SDS011;61452;40.054;4.110;2024-01-15T13:01:38;2.08;;;0.77;;
73239;SDS011;61452;40.054;4.110;2024-01-15T13:06:42;1.92;;;0.88;;
73239;SDS011;61452;40.054;4.110;2024-01-15T13:11:45;1.20;;;0.80;;
73239;SDS011;61452;40.054;4.110;2024-01-15T13:16:47;2.25;;;0.90;;
73239;SDS011;61452;40.054;4.110;2024-01-15T13:21:50;1.27;;;0.80;;
73239;SDS011;61452;40.054;4.110;2024-01-15T13:26:52;2.95;;;0.90;;
73239;SDS011;61452;40.054;4.110;2024-01-15T13:31:55;2.30;;;0.85;;
73239;SDS011;61452;40.054;4.110;2024-01-15T13:36:57;3.17;;;0.90;;
73239;SDS011;61452;40.054;4.110;2024-01-15T13:41:59;1.63;;;0.73;;
73239;SDS011;61452;40.054;4.110;2024-01-15T13:47:01;1.80;;;0.93;;
73239;SDS011;61452;40.054;4.110;2024-01-15T13:52:04;2.65;;;1.00;;
73239;SDS011;61452;40.054;4.110;2024-01-15T13:57:06;2.17;;;0.70;;
73239;SDS011;61452;40.054;4.110;2024-01-15T14:02:08;1.95;;;0.60;;
73239;SDS011;61452;40.054;4.110;2024-01-15T14:07:11;1.50;;;0.80;;
73239;SDS011;61452;40.054;4.110;2024-01-15T14:12:14;2.70;;;0.90;;
73239;SDS011;61452;40.054;4.110;2024-01-15T14:17:17;2.50;;;0.90;;
73239;SDS011;61452;40.054;4.110;2024-01-15T14:22:19;2.05;;;0.80;;
73239;SDS011;61452;40.054;4.110;2024-01-15T14:27:21;3.10;;;0.90;;
73239;SDS011;61452;40.054;4.110;2024-01-15T14:32:23;2.20;;;0.82;;
73239;SDS011;61452;40.054;4.110;2024-01-15T14:37:25;3.13;;;1.00;;
73239;SDS011;61452;40.054;4.110;2024-01-15T14:42:27;2.97;;;1.10;;
73239;SDS011;61452;40.054;4.110;2024-01-15T14:47:31;3.72;;;1.00;;
73239;SDS011;61452;40.054;4.110;2024-01-15T14:52:33;1.90;;;0.90;;
73239;SDS011;61452;40.054;4.110;2024-01-15T14:57:35;3.70;;;1.33;;
73239;SDS011;61452;40.054;4.110;2024-01-15T15:02:38;4.82;;;1.23;;
73239;SDS011;61452;40.054;4.110;2024-01-15T15:07:41;3.15;;;1.13;;
73239;SDS011;61452;40.054;4.110;2024-01-15T15:12:43;7.78;;;1.20;;
73239;SDS011;61452;40.054;4.110;2024-01-15T15:17:45;3.65;;;1.40;;
73239;SDS011;61452;40.054;4.110;2024-01-15T15:22:47;2.65;;;1.00;;
73239;SDS011;61452;40.054;4.110;2024-01-15T15:27:49;5.57;;;1.35;;
73239;SDS011;61452;40.054;4.110;2024-01-15T15:32:51;6.55;;;1.40;;
73239;SDS011;61452;40.054;4.110;2024-01-15T15:37:57;2.30;;;1.25;;
73239;SDS011;61452;40.054;4.110;2024-01-15T15:42:59;5.90;;;1.13;;
73239;SDS011;61452;40.054;4.110;2024-01-15T15:48:01;4.32;;;1.20;;
73239;SDS011;61452;40.054;4.110;2024-01-15T15:53:03;3.80;;;1.25;;
73239;SDS011;61452;40.054;4.110;2024-01-15T15:58:05;3.30;;;1.00;;
73239;SDS011;61452;40.054;4.110;2024-01-15T16:03:08;4.28;;;1.02;;
73239;SDS011;61452;40.054;4.110;2024-01-15T16:08:10;7.35;;;1.20;;
73239;SDS011;61452;40.054;4.110;2024-01-15T16:13:12;3.47;;;1.10;;
73239;SDS011;61452;40.054;4.110;2024-01-15T16:18:15;4.05;;;1.20;;
73239;SDS011;61452;40.054;4.110;2024-01-15T16:28:59;3.40;;;1.25;;
73239;SDS011;61452;40.054;4.110;2024-01-15T16:34:05;4.03;;;1.60;;
73239;SDS011;61452;40.054;4.110;2024-01-15T16:39:11;5.75;;;1.80;;
73239;SDS011;61452;40.054;4.110;2024-01-15T16:44:13;10.48;;;1.92;;
73239;SDS011;61452;40.054;4.110;2024-01-15T16:49:15;4.93;;;1.50;;
73239;SDS011;61452;40.054;4.110;2024-01-15T16:54:19;7.03;;;1.60;;
73239;SDS011;61452;40.054;4.110;2024-01-15T16:59:22;6.15;;;1.60;;
73239;SDS011;61452;40.054;4.110;2024-01-15T17:04:24;5.45;;;1.25;;
73239;SDS011;61452;40.054;4.110;2024-01-15T17:09:26;5.70;;;2.10;;
73239;SDS011;61452;40.054;4.110;2024-01-15T17:14:29;4.30;;;1.10;;
73239;SDS011;61452;40.054;4.110;2024-01-15T17:19:31;5.85;;;1.58;;
73239;SDS011;61452;40.054;4.110;2024-01-15T17:24:33;4.20;;;1.20;;
73239;SDS011;61452;40.054;4.110;2024-01-15T17:29:35;6.78;;;1.80;;
73239;SDS011;61452;40.054;4.110;2024-01-15T17:34:39;6.00;;;1.15;;
73239;SDS011;61452;40.054;4.110;2024-01-15T17:39:41;4.97;;;1.45;;
73239;SDS011;61452;40.054;4.110;2024-01-15T17:44:44;5.25;;;1.52;;
73239;SDS011;61452;40.054;4.110;2024-01-15T17:49:46;3.85;;;1.20;;
73239;SDS011;61452;40.054;4.110;2024-01-15T17:54:48;4.13;;;1.60;;
73239;SDS011;61452;40.054;4.110;2024-01-15T17:59:50;5.78;;;1.60;;
73239;SDS011;61452;40.054;4.110;2024-01-15T18:04:52;4.93;;;1.50;;
73239;SDS011;61452;40.054;4.110;2024-01-15T18:09:54;5.80;;;1.45;;
73239;SDS011;61452;40.054;4.110;2024-01-15T18:14:57;4.38;;;1.27;;
73239;SDS011;61452;40.054;4.110;2024-01-15T18:19:59;4.55;;;1.30;;
73239;SDS011;61452;40.054;4.110;2024-01-15T18:25:02;6.35;;;1.50;;
73239;SDS011;61452;40.054;4.110;2024-01-15T18:30:04;7.00;;;1.48;;
73239;SDS011;61452;40.054;4.110;2024-01-15T18:35:07;6.80;;;1.48;;
73239;SDS011;61452;40.054;4.110;2024-01-15T18:40:09;5.65;;;1.90;;
73239;SDS011;61452;40.054;4.110;2024-01-15T18:45:12;5.28;;;1.40;;
73239;SDS011;61452;40.054;4.110;2024-01-15T18:50:14;2.70;;;1.20;;
73239;SDS011;61452;40.054;4.110;2024-01-15T18:55:16;5.35;;;1.50;;
73239;SDS011;61452;40.054;4.110;2024-01-15T19:00:19;4.97;;;1.60;;
73239;SDS011;61452;40.054;4.110;2024-01-15T19:05:22;4.50;;;1.15;;
73239;SDS011;61452;40.054;4.110;2024-01-15T19:10:26;5.72;;;1.30;;
73239;SDS011;61452;40.054;4.110;2024-01-15T19:15:28;4.30;;;1.20;;
73239;SDS011;61452;40.054;4.110;2024-01-15T19:20:30;5.47;;;1.15;;
73239;SDS011;61452;40.054;4.110;2024-01-15T19:25:34;6.65;;;1.13;;
73239;SDS011;61452;40.054;4.110;2024-01-15T19:30:36;4.20;;;1.10;;
73239;SDS011;61452;40.054;4.110;2024-01-15T19:35:38;6.10;;;1.27;;
73239;SDS011;61452;40.054;4.110;2024-01-15T19:40:40;4.97;;;1.35;;
73239;SDS011;61452;40.054;4.110;2024-01-15T19:45:46;5.47;;;1.05;;
73239;SDS011;61452;40.054;4.110;2024-01-15T19:50:48;4.25;;;1.25;;
73239;SDS011;61452;40.054;4.110;2024-01-15T19:55:50;7.60;;;1.33;;
73239;SDS011;61452;40.054;4.110;2024-01-15T20:00:52;4.97;;;1.10;;
73239;SDS011;61452;40.054;4.110;2024-01-15T20:05:54;6.45;;;1.55;;
73239;SDS011;61452;40.054;4.110;2024-01-15T20:10:56;3.17;;;0.82;;
73239;SDS011;61452;40.054;4.110;2024-01-15T20:16:04;4.97;;;1.65;;
73239;SDS011;61452;40.054;4.110;2024-01-15T20:21:07;7.53;;;1.48;;
73239;SDS011;61452;40.054;4.110;2024-01-15T20:26:10;3.08;;;1.10;;
73239;SDS011;61452;40.054;4.110;2024-01-15T20:31:12;3.88;;;1.33;;
73239;SDS011;61452;40.054;4.110;2024-01-15T20:36:15;4.97;;;1.10;;
73239;SDS011;61452;40.054;4.110;2024-01-15T20:41:17;6.15;;;1.25;;
73239;SDS011;61452;40.054;4.110;2024-01-15T20:46:19;3.63;;;1.20;;
73239;SDS011;61452;40.054;4.110;2024-01-15T20:51:21;5.07;;;0.85;;
73239;SDS011;61452;40.054;4.110;2024-01-15T20:56:23;6.53;;;1.30;;
73239;SDS011;61452;40.054;4.110;2024-01-15T21:01:25;4.45;;;0.90;;
73239;SDS011;61452;40.054;4.110;2024-01-15T21:06:27;3.67;;;0.98;;
73239;SDS011;61452;40.054;4.110;2024-01-15T21:11:30;4.45;;;1.08;;
73239;SDS011;61452;40.054;4.110;2024-01-15T21:16:32;3.63;;;0.70;;
73239;SDS011;61452;40.054;4.110;2024-01-15T21:21:45;3.05;;;1.25;;
73239;SDS011;61452;40.054;4.110;2024-01-15T21:26:49;3.92;;;0.90;;
73239;SDS011;61452;40.054;4.110;2024-01-15T21:31:51;5.35;;;1.00;;
73239;SDS011;61452;40.054;4.110;2024-01-15T21:36:53;3.17;;;0.93;;
73239;SDS011;61452;40.054;4.110;2024-01-15T21:41:55;4.82;;;0.90;;
73239;SDS011;61452;40.054;4.110;2024-01-15T21:46:58;4.05;;;1.05;;
73239;SDS011;61452;40.054;4.110;2024-01-15T21:52:00;5.85;;;1.27;;
73239;SDS011;61452;40.054;4.110;2024-01-15T21:57:02;4.05;;;0.93;;
73239;SDS011;61452;40.054;4.110;2024-01-15T22:02:05;3.15;;;0.80;;
73239;SDS011;61452;40.054;4.110;2024-01-15T22:07:10;3.80;;;0.90;;
73239;SDS011;61452;40.054;4.110;2024-01-15T22:12:12;1.58;;;0.73;;
73239;SDS011;61452;40.054;4.110;2024-01-15T22:17:14;4.70;;;0.95;;
73239;SDS011;61452;40.054;4.110;2024-01-15T22:22:16;2.50;;;0.75;;
73239;SDS011;61452;40.054;4.110;2024-01-15T22:27:18;2.83;;;0.75;;
73239;SDS011;61452;40.054;4.110;2024-01-15T22:32:21;3.00;;;0.73;;
73239;SDS011;61452;40.054;4.110;2024-01-15T22:37:24;3.75;;;0.90;;
73239;SDS011;61452;40.054;4.110;2024-01-15T22:42:26;4.75;;;0.85;;
73239;SDS011;61452;40.054;4.110;2024-01-15T22:47:28;4.60;;;0.73;;
73239;SDS011;61452;40.054;4.110;2024-01-15T22:52:30;4.57;;;0.80;;
73239;SDS011;61452;40.054;4.110;2024-01-15T22:57:33;4.97;;;0.93;;
73239;SDS011;61452;40.054;4.110;2024-01-15T23:02:36;4.80;;;0.70;;
73239;SDS011;61452;40.054;4.110;2024-01-15T23:07:39;2.88;;;0.82;;
73239;SDS011;61452;40.054;4.110;2024-01-15T23:12:42;2.80;;;0.73;;
73239;SDS011;61452;40.054;4.110;2024-01-15T23:17:44;5.03;;;1.10;;
73239;SDS011;61452;40.054;4.110;2024-01-15T23:22:48;6.28;;;1.00;;
73239;SDS011;61452;40.054;4.110;2024-01-15T23:27:50;6.22;;;1.02;;
73239;SDS011;61452;40.054;4.110;2024-01-15T23:32:53;4.25;;;0.60;;
73239;SDS011;61452;40.054;4.110;2024-01-15T23:37:55;3.65;;;0.90;;
73239;SDS011;61452;40.054;4.110;2024-01-15T23:42:57;6.22;;;1.00;;
73239;SDS011;61452;40.054;4.110;2024-01-15T23:47:59;4.22;;;0.82;;
73239;SDS011;61452;40.054;4.110;2024-01-15T23:53:01;3.50;;;0.95;;
73239;SDS011;61452;40.054;4.110;2024-01-15T23:58:04;4.60;;;0.95;;
